Kyokusho Maru — JL6605 — position and weather

sailwx.info

Track history (hours):
 
Tides and Currents Weather Stations Pressure Air Temp Water Temp Dewpoint Dewpoint Depression Visibility Wind Speed Wind Dir Waves Ship Positions

Kyokusho Maru

Last reported at 2017-Jan-19 03:34 UTC. Time now 2017-Jan-21 04:12 UTC.
Position N 34°08' E 134°60'.

Length 77 m; draft 5.5 m.

Type: Tanker. MMSI: 431501667.

Date/timePositionNaut miles runAvg speedWind from/ knotsBaromVisibWave heightAir tempDewpointWater temp
2017-Jan-19 03:34N 34°08' E 134°60'6 1.1
2017-Jan-18 21:33N 34°07' E 135°07'2 2.3
2017-Jan-18 20:32N 34°09' E 135°08'0 0.0
2017-Jan-18 18:32N 34°09' E 135°08'0 0.0
2017-Jan-18 17:29N 34°09' E 135°08'0 0.1
2017-Jan-18 16:32N 34°09' E 135°08'0 0.0
2017-Jan-18 15:32N 34°09' E 135°08'0 0.0
2017-Jan-18 14:32N 34°09' E 135°08'0 0.0
2017-Jan-18 13:08N 34°09' E 135°08'0 0.1
2017-Jan-18 12:29N 34°09' E 135°08'0 0.0
2017-Jan-18 11:23N 34°09' E 135°08'0 0.0
2017-Jan-18 10:32N 34°09' E 135°08'0 0.0
2017-Jan-18 09:29N 34°09' E 135°08'29 1.1
2017-Jan-17 07:32N 34°38' E 134°59'10 9.7
2017-Jan-17 06:33N 34°36' E 135°10'1211.5
2017-Jan-17 05:33N 34°39' E 135°24'1 0.5
2017-Jan-17 03:26N 34°39' E 135°25'0 0.2
2017-Jan-17 00:33N 34°39' E 135°25'5 5.3
2017-Jan-16 23:32N 34°36' E 135°19'0 0.0
2017-Jan-16 22:20N 34°36' E 135°19'0 0.0
2017-Jan-16 21:32N 34°36' E 135°19'0 0.0
2017-Jan-16 20:32N 34°36' E 135°19'0 0.0
2017-Jan-16 19:32N 34°36' E 135°19'0 0.0
2017-Jan-16 18:32N 34°36' E 135°19'0 0.0
2017-Jan-16 17:26N 34°36' E 135°19'0 0.0
2017-Jan-16 16:32N 34°36' E 135°19'0 0.0
2017-Jan-16 15:32N 34°36' E 135°19'0 0.0
2017-Jan-16 13:32N 34°36' E 135°19'0 0.0
2017-Jan-16 12:26N 34°36' E 135°19'0 0.0
2017-Jan-16 11:32N 34°36' E 135°19'0 0.1
2017-Jan-16 10:20N 34°36' E 135°19'810.1
2017-Jan-16 09:33N 34°35' E 135°10'27 1.0
2017-Jan-15 06:33N 34°08' E 135°04'3 1.0
2017-Jan-15 03:11N 34°07' E 135°08'0 0.0
2017-Jan-15 02:32N 34°07' E 135°08'0 0.3
2017-Jan-15 01:33N 34°07' E 135°08'3 2.3
2017-Jan-15 00:27N 34°09' E 135°09'0 0.0
2017-Jan-14 23:33N 34°09' E 135°09'0 0.0
2017-Jan-14 22:24N 34°09' E 135°09'0 0.0
2017-Jan-14 21:21N 34°09' E 135°09'0 0.0
2017-Jan-14 20:24N 34°09' E 135°09'0 0.0
2017-Jan-14 19:30N 34°09' E 135°09'0 0.0
2017-Jan-14 18:27N 34°09' E 135°09'0 0.0
2017-Jan-14 17:24N 34°09' E 135°09'0 0.0
2017-Jan-14 16:33N 34°09' E 135°09'0 0.0
2017-Jan-14 15:30N 34°09' E 135°09'0 0.0
2017-Jan-14 14:30N 34°09' E 135°09'0 0.0
2017-Jan-14 13:33N 34°09' E 135°09'0 0.0
2017-Jan-14 12:27N 34°09' E 135°09'0 0.0
2017-Jan-14 11:33N 34°09' E 135°09'0 0.0
2017-Jan-14 10:30N 34°09' E 135°09'0 0.0
2017-Jan-14 09:33N 34°09' E 135°09'0 0.0
2017-Jan-14 08:30N 34°09' E 135°09'0 0.0
2017-Jan-14 07:24N 34°09' E 135°09'0 0.0
2017-Jan-14 06:18N 34°09' E 135°09'0 0.0
2017-Jan-14 04:33N 34°09' E 135°09'0 0.1
2017-Jan-13 23:33N 34°10' E 135°09'1211.0
2017-Jan-13 22:28N 34°19' E 134°59'1111.6
2017-Jan-13 21:33N 34°29' E 135°01'8 8.0
2017-Jan-13 20:31N 34°36' E 134°57'  
2017-Jan-10 07:05N 34°36' E 134°55'610.3
2017-Jan-10 06:32N 34°37' E 135°02'1010.1
2017-Jan-10 05:33N 34°36' E 135°13'9 1.3
2017-Jan-09 22:32N 34°39' E 135°24'5 1.2
2017-Jan-09 18:19N 34°36' E 135°19'0 0.0
2017-Jan-09 17:31N 34°36' E 135°19'0 0.0
2017-Jan-09 16:13N 34°36' E 135°19'0 0.1
2017-Jan-09 15:31N 34°36' E 135°19'0 0.0
2017-Jan-09 14:25N 34°36' E 135°19'0 0.0
2017-Jan-09 11:25N 34°36' E 135°19'0 0.0
2017-Jan-09 10:25N 34°36' E 135°19'0 0.0
2017-Jan-09 09:31N 34°36' E 135°19'3 1.5
2017-Jan-09 07:32N 34°36' E 135°23'  
Track history (hours):
 
Tides and Currents Weather Stations Pressure Air Temp Water Temp Dewpoint Dewpoint Depression Visibility Wind Speed Wind Dir Waves Ship Positions

Kyokusho Maru

Last reported at 2017-Jan-19 03:34 UTC. Time now 2017-Jan-21 04:12 UTC.
Position N 34°08' E 134°60'.

Length 77 m; draft 5.5 m.

Type: Tanker. MMSI: 431501667.

Date/timePositionNaut miles runAvg speedWind from/ knotsBaromVisibWave heightAir tempDewpointWater temp
2017-Jan-19 03:34N 34°08' E 134°60'6 1.1
2017-Jan-18 21:33N 34°07' E 135°07'2 2.3
2017-Jan-18 20:32N 34°09' E 135°08'0 0.0
2017-Jan-18 18:32N 34°09' E 135°08'0 0.0
2017-Jan-18 17:29N 34°09' E 135°08'0 0.1
2017-Jan-18 16:32N 34°09' E 135°08'0 0.0
2017-Jan-18 15:32N 34°09' E 135°08'0 0.0
2017-Jan-18 14:32N 34°09' E 135°08'0 0.0
2017-Jan-18 13:08N 34°09' E 135°08'0 0.1
2017-Jan-18 12:29N 34°09' E 135°08'0 0.0
2017-Jan-18 11:23N 34°09' E 135°08'0 0.0
2017-Jan-18 10:32N 34°09' E 135°08'0 0.0
2017-Jan-18 09:29N 34°09' E 135°08'29 1.1
2017-Jan-17 07:32N 34°38' E 134°59'10 9.7
2017-Jan-17 06:33N 34°36' E 135°10'1211.5
2017-Jan-17 05:33N 34°39' E 135°24'1 0.5
2017-Jan-17 03:26N 34°39' E 135°25'0 0.2
2017-Jan-17 00:33N 34°39' E 135°25'5 5.3
2017-Jan-16 23:32N 34°36' E 135°19'0 0.0
2017-Jan-16 22:20N 34°36' E 135°19'0 0.0
2017-Jan-16 21:32N 34°36' E 135°19'0 0.0
2017-Jan-16 20:32N 34°36' E 135°19'0 0.0
2017-Jan-16 19:32N 34°36' E 135°19'0 0.0
2017-Jan-16 18:32N 34°36' E 135°19'0 0.0
2017-Jan-16 17:26N 34°36' E 135°19'0 0.0
2017-Jan-16 16:32N 34°36' E 135°19'0 0.0
2017-Jan-16 15:32N 34°36' E 135°19'0 0.0
2017-Jan-16 13:32N 34°36' E 135°19'0 0.0
2017-Jan-16 12:26N 34°36' E 135°19'0 0.0
2017-Jan-16 11:32N 34°36' E 135°19'0 0.1
2017-Jan-16 10:20N 34°36' E 135°19'810.1
2017-Jan-16 09:33N 34°35' E 135°10'27 1.0
2017-Jan-15 06:33N 34°08' E 135°04'3 1.0
2017-Jan-15 03:11N 34°07' E 135°08'0 0.0
2017-Jan-15 02:32N 34°07' E 135°08'0 0.3
2017-Jan-15 01:33N 34°07' E 135°08'3 2.3
2017-Jan-15 00:27N 34°09' E 135°09'0 0.0
2017-Jan-14 23:33N 34°09' E 135°09'0 0.0
2017-Jan-14 22:24N 34°09' E 135°09'0 0.0
2017-Jan-14 21:21N 34°09' E 135°09'0 0.0
2017-Jan-14 20:24N 34°09' E 135°09'0 0.0
2017-Jan-14 19:30N 34°09' E 135°09'0 0.0
2017-Jan-14 18:27N 34°09' E 135°09'0 0.0
2017-Jan-14 17:24N 34°09' E 135°09'0 0.0
2017-Jan-14 16:33N 34°09' E 135°09'0 0.0
2017-Jan-14 15:30N 34°09' E 135°09'0 0.0
2017-Jan-14 14:30N 34°09' E 135°09'0 0.0
2017-Jan-14 13:33N 34°09' E 135°09'0 0.0
2017-Jan-14 12:27N 34°09' E 135°09'0 0.0
2017-Jan-14 11:33N 34°09' E 135°09'0 0.0
2017-Jan-14 10:30N 34°09' E 135°09'0 0.0
2017-Jan-14 09:33N 34°09' E 135°09'0 0.0
2017-Jan-14 08:30N 34°09' E 135°09'0 0.0
2017-Jan-14 07:24N 34°09' E 135°09'0 0.0
2017-Jan-14 06:18N 34°09' E 135°09'0 0.0
2017-Jan-14 04:33N 34°09' E 135°09'0 0.1
2017-Jan-13 23:33N 34°10' E 135°09'1211.0
2017-Jan-13 22:28N 34°19' E 134°59'1111.6
2017-Jan-13 21:33N 34°29' E 135°01'8 8.0
2017-Jan-13 20:31N 34°36' E 134°57'  
2017-Jan-10 07:05N 34°36' E 134°55'610.3
2017-Jan-10 06:32N 34°37' E 135°02'1010.1
2017-Jan-10 05:33N 34°36' E 135°13'9 1.3
2017-Jan-09 22:32N 34°39' E 135°24'5 1.2
2017-Jan-09 18:19N 34°36' E 135°19'0 0.0
2017-Jan-09 17:31N 34°36' E 135°19'0 0.0
2017-Jan-09 16:13N 34°36' E 135°19'0 0.1
2017-Jan-09 15:31N 34°36' E 135°19'0 0.0
2017-Jan-09 14:25N 34°36' E 135°19'0 0.0
2017-Jan-09 11:25N 34°36' E 135°19'0 0.0
2017-Jan-09 10:25N 34°36' E 135°19'0 0.0
2017-Jan-09 09:31N 34°36' E 135°19'3 1.5
2017-Jan-09 07:32N 34°36' E 135°23'  

Dump ship's entire track history